createdAt,value
2022-12-19T00:01:58.312Z,44.30
2022-12-19T00:04:26.526Z,44.30
2022-12-19T00:06:54.268Z,44.40
2022-12-19T00:09:22.446Z,44.40
2022-12-19T00:11:50.242Z,44.30
2022-12-19T00:14:19.359Z,44.30
2022-12-19T00:16:47.182Z,44.30
2022-12-19T00:19:15.868Z,44.20
2022-12-19T00:21:43.581Z,44.30
2022-12-19T00:24:20.474Z,44.30
2022-12-19T00:26:49.360Z,44.40
2022-12-19T00:29:17.152Z,44.40
2022-12-19T00:31:46.309Z,44.40
2022-12-19T00:34:14.454Z,44.50
2022-12-19T00:36:42.232Z,44.50
2022-12-19T00:39:11.058Z,44.60
2022-12-19T00:41:41.644Z,44.60
2022-12-19T00:44:11.685Z,44.70
2022-12-19T00:46:39.487Z,44.60
2022-12-19T00:49:08.591Z,44.70
2022-12-19T00:51:37.169Z,44.70
2022-12-19T00:54:07.368Z,44.80
2022-12-19T00:56:37.581Z,44.80
2022-12-19T00:59:05.986Z,44.80
2022-12-19T01:01:34.641Z,45.40
2022-12-19T01:06:52.135Z,44.90
2022-12-19T01:09:21.938Z,44.90
2022-12-19T01:12:07.314Z,45.00
2022-12-19T01:14:35.519Z,44.90
2022-12-19T01:17:03.737Z,45.00
2022-12-19T01:19:31.491Z,45.00
2022-12-19T01:22:01.436Z,45.10
2022-12-19T01:24:30.345Z,45.10
2022-12-19T01:26:58.662Z,45.10
2022-12-19T01:29:28.125Z,45.10
2022-12-19T01:31:56.634Z,45.20
2022-12-19T01:34:24.789Z,45.20
2022-12-19T01:36:52.948Z,45.20
2022-12-19T01:39:22.131Z,45.30
2022-12-19T01:41:52.959Z,45.20
2022-12-19T01:44:20.798Z,45.40
2022-12-19T01:46:49.846Z,45.40
2022-12-19T01:49:20.227Z,45.30
2022-12-19T01:51:53.969Z,45.40
2022-12-19T01:54:24.752Z,45.40
2022-12-19T01:56:54.802Z,45.50
2022-12-19T01:59:25.187Z,45.50
2022-12-19T02:01:53.963Z,45.60
2022-12-19T02:04:21.765Z,45.50
2022-12-19T02:06:49.962Z,45.60
2022-12-19T02:09:17.715Z,45.60
2022-12-19T02:11:49.746Z,45.60
2022-12-19T02:14:17.555Z,45.60
2022-12-19T02:16:48.950Z,45.80
2022-12-19T02:19:41.933Z,45.70
2022-12-19T02:22:14.843Z,45.80
2022-12-19T02:25:10.428Z,45.80
2022-12-19T02:28:03.006Z,45.80
2022-12-19T02:30:42.245Z,45.80
2022-12-19T02:33:13.132Z,46.00
2022-12-19T02:35:42.249Z,46.00
2022-12-19T02:38:13.254Z,46.00
2022-12-19T02:40:42.738Z,45.90
2022-12-19T02:43:10.415Z,46.00
2022-12-19T02:45:40.138Z,46.10
2022-12-19T02:48:09.219Z,46.00
2022-12-19T02:50:39.130Z,46.00
2022-12-19T02:53:06.935Z,46.10
2022-12-19T02:55:37.850Z,46.10
2022-12-19T02:58:44.354Z,46.20
2022-12-19T03:01:22.263Z,46.10
2022-12-19T03:03:56.277Z,46.20
2022-12-19T03:06:26.548Z,46.30
2022-12-19T03:08:56.962Z,46.20
2022-12-19T03:11:25.194Z,46.20
2022-12-19T03:13:54.948Z,46.30
2022-12-19T03:16:24.299Z,47.00
2022-12-19T03:18:55.137Z,46.30
2022-12-19T03:21:24.831Z,46.40
2022-12-19T03:23:54.551Z,46.50
2022-12-19T03:26:24.294Z,46.40
2022-12-19T03:28:53.814Z,46.50
2022-12-19T03:31:24.970Z,46.60
2022-12-19T03:33:55.728Z,46.60
2022-12-19T03:36:26.315Z,46.50
2022-12-19T03:38:54.314Z,46.60
2022-12-19T03:41:42.772Z,46.60
2022-12-19T03:44:09.930Z,46.70
2022-12-19T03:46:41.375Z,46.70
2022-12-19T03:49:09.393Z,46.60
2022-12-19T03:51:41.809Z,46.80
2022-12-19T03:54:10.936Z,46.80
2022-12-19T03:56:42.758Z,46.80
2022-12-19T03:59:12.095Z,46.70
2022-12-19T04:01:41.307Z,46.70
2022-12-19T04:04:12.693Z,47.40
2022-12-19T04:06:40.897Z,46.80
2022-12-19T04:09:08.722Z,47.00
2022-12-19T04:11:38.664Z,47.00
2022-12-19T04:14:08.888Z,47.00
2022-12-19T04:16:41.237Z,47.10
2022-12-19T04:19:11.593Z,47.00
2022-12-19T04:21:43.973Z,46.90
2022-12-19T04:24:13.275Z,47.00
2022-12-19T04:26:43.917Z,47.10
2022-12-19T04:29:12.107Z,47.10
2022-12-19T04:31:41.321Z,47.20
2022-12-19T04:34:09.079Z,47.30
2022-12-19T04:36:36.832Z,47.30
2022-12-19T04:39:05.491Z,47.30
2022-12-19T04:41:33.401Z,47.30
2022-12-19T04:44:01.822Z,47.40
2022-12-19T04:46:29.960Z,47.40
2022-12-19T04:48:59.371Z,47.40
2022-12-19T04:51:27.456Z,47.40
2022-12-19T04:53:55.518Z,47.40
2022-12-19T04:56:23.588Z,47.50
2022-12-19T04:58:51.529Z,47.60
2022-12-19T05:01:19.919Z,47.50
2022-12-19T05:03:52.689Z,47.60
2022-12-19T05:06:24.534Z,47.60
2022-12-19T05:08:52.258Z,47.70
2022-12-19T05:11:20.351Z,47.60
2022-12-19T05:13:49.823Z,47.70
2022-12-19T05:16:17.771Z,47.70
2022-12-19T05:18:45.653Z,47.80
2022-12-19T05:21:13.477Z,47.90
2022-12-19T05:23:42.691Z,47.90
2022-12-19T05:26:12.016Z,47.90
2022-12-19T05:28:40.040Z,47.80
2022-12-19T05:31:09.222Z,48.00
2022-12-19T05:33:37.360Z,47.90
2022-12-19T05:36:06.241Z,47.90
2022-12-19T05:38:34.247Z,48.00
2022-12-19T05:41:07.688Z,48.10
2022-12-19T05:43:35.452Z,48.00
2022-12-19T05:46:04.575Z,48.20
2022-12-19T05:48:32.374Z,48.20
2022-12-19T05:51:00.125Z,48.10
2022-12-19T05:53:28.865Z,48.20
2022-12-19T05:56:05.493Z,48.30
2022-12-19T05:58:34.074Z,48.40
2022-12-19T06:01:05.015Z,48.30
2022-12-19T06:03:32.961Z,48.40
2022-12-19T06:06:03.688Z,48.30
2022-12-19T06:08:31.904Z,48.40
2022-12-19T06:11:00.404Z,48.40
2022-12-19T06:13:29.910Z,48.40
2022-12-19T06:16:00.943Z,48.40
2022-12-19T06:18:29.439Z,48.50
2022-12-19T06:20:58.853Z,48.50
2022-12-19T06:23:26.949Z,49.10
2022-12-19T06:25:56.598Z,48.60
2022-12-19T06:28:24.414Z,48.50
2022-12-19T06:30:54.343Z,48.70
2022-12-19T06:33:22.379Z,48.60
2022-12-19T06:35:50.657Z,48.70
2022-12-19T06:38:18.421Z,48.60
2022-12-19T06:41:04.499Z,48.70
2022-12-19T06:43:32.176Z,48.70
2022-12-19T06:46:01.312Z,48.80
2022-12-19T06:48:29.253Z,48.90
2022-12-19T06:50:57.611Z,48.80
2022-12-19T06:53:25.825Z,48.80
2022-12-19T06:55:54.914Z,48.90
2022-12-19T06:58:24.402Z,48.90
2022-12-19T07:00:52.918Z,48.90
2022-12-19T07:03:23.723Z,48.90
2022-12-19T07:05:51.456Z,49.00
2022-12-19T07:08:19.131Z,49.20
2022-12-19T07:10:47.566Z,49.20
2022-12-19T07:13:15.536Z,49.30
2022-12-19T07:15:43.891Z,49.20
2022-12-19T07:18:12.010Z,49.20
2022-12-19T07:20:45.251Z,49.40
2022-12-19T07:23:18.086Z,49.30
2022-12-19T07:25:46.233Z,49.30
2022-12-19T07:28:14.111Z,49.40
2022-12-19T07:30:42.522Z,49.40
2022-12-19T07:33:11.525Z,49.50
2022-12-19T07:35:41.907Z,49.50
2022-12-19T07:38:09.603Z,49.50
2022-12-19T07:40:37.534Z,49.60
2022-12-19T07:43:06.402Z,49.60
2022-12-19T07:45:34.509Z,49.60
2022-12-19T07:48:02.759Z,49.70
2022-12-19T07:50:30.612Z,49.80
2022-12-19T07:53:00.108Z,49.80
2022-12-19T07:55:27.892Z,49.80
2022-12-19T07:57:56.555Z,49.80
2022-12-19T08:00:24.385Z,49.80
2022-12-19T08:02:52.524Z,49.90
2022-12-19T08:05:20.275Z,49.80
2022-12-19T08:07:48.375Z,50.00
2022-12-19T08:10:17.699Z,50.00
2022-12-19T08:12:45.826Z,50.10
2022-12-19T08:15:13.495Z,50.10
2022-12-19T08:17:41.760Z,50.10
2022-12-19T08:20:11.203Z,50.80
2022-12-19T08:22:38.872Z,50.80
2022-12-19T08:25:08.933Z,50.30
2022-12-19T08:27:38.179Z,50.20
2022-12-19T08:30:07.435Z,50.30
2022-12-19T08:32:36.723Z,50.40
2022-12-19T08:35:05.585Z,50.40
2022-12-19T08:37:35.890Z,50.40
2022-12-19T08:40:04.049Z,50.40
2022-12-19T08:42:32.278Z,50.40
2022-12-19T08:45:01.754Z,50.40
2022-12-19T08:47:29.808Z,50.50
2022-12-19T08:49:57.885Z,50.60
2022-12-19T08:52:25.610Z,50.60
2022-12-19T08:54:53.629Z,50.60
2022-12-19T08:57:21.537Z,50.60
2022-12-19T08:59:49.414Z,50.60
2022-12-19T09:02:20.128Z,50.60
2022-12-19T09:06:00.117Z,50.60
2022-12-19T09:07:38.579Z,50.80
2022-12-19T09:10:08.700Z,50.70
2022-12-19T09:12:36.380Z,50.80
2022-12-19T09:15:04.704Z,50.70
2022-12-19T09:17:33.761Z,50.80
2022-12-19T09:20:01.441Z,50.90
2022-12-19T09:22:29.768Z,50.80
2022-12-19T09:24:57.493Z,50.90
2022-12-19T09:27:25.708Z,51.00
2022-12-19T09:29:53.613Z,51.00
2022-12-19T09:32:21.914Z,51.00
2022-12-19T09:34:51.239Z,50.90
2022-12-19T09:37:19.770Z,50.90
2022-12-19T09:39:47.851Z,51.10
2022-12-19T09:42:41.409Z,51.00
2022-12-19T09:45:42.514Z,51.10
2022-12-19T09:48:23.975Z,51.10
2022-12-19T09:51:09.412Z,51.20
2022-12-19T09:53:41.877Z,51.20
2022-12-19T09:56:12.357Z,51.30
2022-12-19T09:58:42.107Z,51.30
2022-12-19T10:01:16.089Z,51.30
2022-12-19T10:03:46.443Z,51.40
2022-12-19T10:07:12.935Z,51.50
2022-12-19T10:10:05.966Z,51.50
2022-12-19T10:12:42.983Z,51.50
2022-12-19T10:14:57.276Z,51.60
2022-12-19T10:17:30.619Z,51.70
2022-12-19T10:20:17.643Z,51.80
2022-12-19T10:22:52.931Z,52.30
2022-12-19T10:25:30.395Z,51.80
2022-12-19T10:28:01.242Z,52.40
2022-12-19T10:30:31.915Z,51.80
2022-12-19T10:33:04.173Z,51.80
2022-12-19T10:35:34.742Z,51.80
2022-12-19T10:38:13.735Z,52.00
2022-12-19T10:40:44.623Z,51.90
2022-12-19T10:43:19.063Z,52.00
2022-12-19T10:45:52.870Z,52.00
2022-12-19T10:48:30.668Z,52.20
2022-12-19T10:51:05.107Z,51.60
2022-12-19T10:53:36.373Z,52.20
2022-12-19T10:56:12.445Z,52.20
2022-12-19T10:58:42.887Z,52.30
2022-12-19T11:01:16.044Z,52.30
2022-12-19T11:03:46.574Z,52.30
2022-12-19T11:06:41.944Z,52.30
2022-12-19T11:09:22.443Z,52.30
2022-12-19T11:16:10.255Z,54.70
2022-12-19T11:20:36.551Z,54.60
2022-12-19T11:22:24.727Z,54.70
2022-12-19T11:29:29.856Z,54.70
2022-12-19T11:29:30.830Z,54.70
2022-12-19T11:29:38.523Z,54.60
2022-12-19T11:30:38.169Z,54.70
2022-12-19T11:32:39.416Z,54.70
2022-12-19T11:35:17.483Z,54.70
2022-12-19T11:37:48.959Z,54.70
2022-12-19T11:40:18.741Z,54.70
2022-12-19T11:43:11.014Z,54.60
2022-12-19T11:45:42.040Z,54.60
2022-12-19T11:48:12.729Z,54.70
2022-12-19T11:50:44.773Z,54.60
2022-12-19T11:53:19.200Z,54.50
2022-12-19T11:55:49.254Z,54.50
2022-12-19T11:58:43.864Z,54.60
2022-12-19T12:01:17.116Z,54.50
2022-12-19T12:04:01.113Z,54.50
2022-12-19T12:06:32.293Z,54.50
2022-12-19T12:10:53.825Z,54.40
2022-12-19T12:19:04.531Z,54.40
2022-12-19T12:26:51.553Z,54.30
2022-12-19T12:30:30.946Z,54.30
2022-12-19T12:31:30.806Z,54.20
2022-12-19T12:31:49.681Z,54.20
2022-12-19T12:31:57.251Z,54.20
2022-12-19T12:32:06.046Z,54.20
2022-12-19T12:35:40.777Z,54.20
2022-12-19T12:37:15.214Z,54.20
2022-12-19T12:38:22.495Z,54.20
2022-12-19T12:40:59.166Z,54.20
2022-12-19T12:43:36.192Z,54.20
2022-12-19T12:46:04.614Z,54.20
2022-12-19T12:48:37.108Z,54.30
2022-12-19T12:51:05.606Z,54.40
2022-12-19T12:53:35.034Z,54.40
2022-12-19T12:56:04.411Z,54.30
2022-12-19T12:59:21.147Z,54.40
2022-12-19T13:01:52.700Z,54.30
2022-12-19T13:04:26.541Z,54.50
2022-12-19T13:07:12.612Z,54.50
2022-12-19T13:09:40.451Z,54.50
2022-12-19T13:12:35.533Z,54.50
2022-12-19T13:25:55.289Z,54.50
2022-12-19T13:28:47.359Z,54.90
2022-12-19T13:31:22.928Z,54.90
2022-12-19T13:34:18.703Z,55.00
2022-12-19T13:39:49.007Z,54.80
2022-12-19T13:39:54.296Z,54.90
2022-12-19T13:42:52.618Z,54.90
2022-12-19T13:45:35.987Z,54.90
2022-12-19T13:48:05.975Z,54.90
2022-12-19T13:50:38.022Z,55.00
2022-12-19T13:53:10.457Z,55.00
2022-12-19T13:55:41.051Z,55.00
2022-12-19T13:58:22.077Z,54.90
2022-12-19T14:01:00.197Z,55.00
2022-12-19T14:03:37.586Z,55.00
2022-12-19T14:06:16.266Z,54.90
2022-12-19T14:08:46.832Z,54.90
2022-12-19T14:11:36.372Z,55.00
2022-12-19T14:14:28.065Z,55.00
2022-12-19T14:16:56.951Z,54.90
2022-12-19T14:19:25.815Z,55.00
2022-12-19T14:22:04.003Z,55.00
2022-12-19T14:24:40.257Z,55.00
2022-12-19T14:28:21.570Z,55.10
2022-12-19T14:30:30.181Z,55.10
2022-12-19T14:33:44.566Z,55.20
2022-12-19T14:36:08.791Z,55.20
2022-12-19T14:39:24.217Z,55.20
2022-12-19T14:41:40.119Z,55.20
2022-12-19T14:51:25.267Z,55.30
2022-12-19T14:52:25.122Z,55.20
2022-12-19T14:54:03.016Z,55.30
2022-12-19T14:54:48.108Z,55.30
2022-12-19T14:56:16.610Z,55.40
2022-12-19T14:58:54.748Z,55.40
2022-12-19T15:01:23.333Z,55.30
2022-12-19T15:04:49.061Z,55.30
2022-12-19T15:07:08.848Z,55.30
2022-12-19T15:11:04.725Z,55.50
2022-12-19T15:14:48.363Z,55.50
2022-12-19T15:15:41.511Z,55.50
2022-12-19T15:18:19.595Z,55.60
2022-12-19T15:20:49.045Z,55.60
2022-12-19T15:23:21.942Z,55.60
2022-12-19T15:26:07.323Z,55.60
2022-12-19T15:28:38.955Z,55.70
2022-12-19T15:31:08.109Z,55.70
2022-12-19T15:33:35.826Z,55.60
2022-12-19T15:36:05.630Z,55.70
2022-12-19T15:38:33.728Z,55.70
2022-12-19T15:41:01.434Z,55.80
2022-12-19T15:44:02.691Z,55.80
2022-12-19T15:46:16.860Z,55.80
2022-12-19T15:48:46.713Z,55.90
2022-12-19T15:51:16.115Z,56.00
2022-12-19T15:53:44.033Z,56.00
2022-12-19T15:56:22.765Z,56.00
2022-12-19T15:58:50.872Z,56.20
2022-12-19T16:01:18.729Z,56.10
2022-12-19T16:03:47.927Z,56.20
2022-12-19T16:06:17.070Z,56.20
2022-12-19T16:08:44.749Z,56.20
2022-12-19T16:11:17.605Z,56.30
2022-12-19T16:13:46.548Z,56.30
2022-12-19T16:16:16.062Z,56.40
2022-12-19T16:18:44.575Z,56.40
2022-12-19T16:21:18.978Z,56.40
2022-12-19T16:23:46.896Z,56.50
2022-12-19T16:26:23.639Z,56.50
2022-12-19T16:28:52.307Z,56.50
2022-12-19T16:31:21.583Z,56.60
2022-12-19T16:33:49.604Z,56.60
2022-12-19T16:36:18.880Z,56.70
2022-12-19T16:38:47.207Z,56.70
2022-12-19T16:41:16.878Z,56.70
2022-12-19T16:43:45.199Z,56.70
2022-12-19T16:46:17.489Z,56.70
2022-12-19T16:48:45.547Z,56.80
2022-12-19T16:51:20.318Z,56.80
2022-12-19T16:53:48.277Z,56.90
2022-12-19T16:56:22.025Z,56.90
2022-12-19T16:58:50.213Z,56.90
2022-12-19T17:01:17.947Z,56.90
2022-12-19T17:03:45.792Z,56.90
2022-12-19T17:06:14.105Z,56.90
2022-12-19T17:08:43.166Z,56.90
2022-12-19T17:11:16.082Z,57.00
2022-12-19T17:13:45.500Z,57.00
2022-12-19T17:16:16.290Z,57.00
2022-12-19T17:18:44.181Z,57.00
2022-12-19T17:21:15.081Z,57.10
2022-12-19T17:23:44.226Z,57.20
2022-12-19T17:26:17.415Z,57.10
2022-12-19T17:28:47.964Z,57.10
2022-12-19T17:31:20.415Z,57.10
2022-12-19T17:33:48.470Z,57.10
2022-12-19T17:36:23.103Z,57.10
2022-12-19T17:38:54.538Z,57.10
2022-12-19T17:41:22.711Z,57.10
2022-12-19T17:43:50.535Z,57.10
2022-12-19T17:46:19.825Z,57.10
2022-12-19T17:48:50.167Z,57.10
2022-12-19T17:51:18.494Z,57.20
2022-12-19T17:53:46.675Z,57.20
2022-12-19T17:56:17.251Z,57.20
2022-12-19T17:58:45.776Z,57.30
2022-12-19T18:01:19.322Z,57.10
2022-12-19T18:03:47.787Z,57.10
2022-12-19T18:06:15.820Z,57.20
2022-12-19T18:08:44.070Z,57.00
2022-12-19T18:11:19.163Z,57.10
2022-12-19T18:13:47.185Z,57.00
2022-12-19T18:16:16.897Z,57.00
2022-12-19T18:18:44.930Z,57.00
2022-12-19T18:21:14.251Z,57.00
2022-12-19T18:23:42.038Z,57.00
2022-12-19T18:26:10.981Z,57.10
2022-12-19T18:28:40.556Z,57.10
2022-12-19T18:31:14.599Z,57.00
2022-12-19T18:33:43.788Z,57.00
2022-12-19T18:36:16.394Z,56.90
2022-12-19T18:38:44.474Z,57.00
2022-12-19T18:41:12.803Z,57.00
2022-12-19T18:43:42.410Z,56.90
2022-12-19T18:46:13.021Z,56.90
2022-12-19T18:48:41.246Z,56.90
2022-12-19T18:51:14.339Z,56.90
2022-12-19T18:53:42.193Z,57.10
2022-12-19T18:56:09.936Z,57.00
2022-12-19T18:58:37.753Z,57.00
2022-12-19T19:01:07.598Z,57.00
2022-12-19T19:03:37.843Z,57.00
2022-12-19T19:06:06.444Z,57.00
2022-12-19T19:08:35.044Z,57.00
2022-12-19T19:11:03.167Z,57.00
2022-12-19T19:13:31.514Z,57.00
2022-12-19T19:16:01.679Z,57.00
2022-12-19T19:18:32.359Z,57.00
2022-12-19T19:21:01.405Z,57.00
2022-12-19T19:23:30.893Z,57.00
2022-12-19T19:25:58.913Z,57.00
2022-12-19T19:28:26.835Z,57.00
2022-12-19T19:30:55.175Z,57.10
2022-12-19T19:33:25.075Z,57.00
2022-12-19T19:35:55.604Z,57.10
2022-12-19T19:38:23.734Z,57.00
2022-12-19T19:40:51.720Z,57.00
2022-12-19T19:43:19.813Z,57.00
2022-12-19T19:45:47.927Z,57.00
2022-12-19T19:48:15.730Z,57.00
2022-12-19T19:50:43.554Z,57.10
2022-12-19T19:53:12.660Z,57.10
2022-12-19T19:55:40.680Z,57.10
2022-12-19T19:58:08.773Z,57.10
2022-12-19T20:00:37.058Z,57.10
2022-12-19T20:03:08.308Z,57.10
2022-12-19T20:05:37.537Z,57.00
2022-12-19T20:08:05.872Z,57.10
2022-12-19T20:10:35.633Z,57.10
2022-12-19T20:13:03.497Z,57.20
2022-12-19T20:15:31.685Z,57.10
2022-12-19T20:17:59.770Z,57.10
2022-12-19T20:20:27.850Z,57.10
2022-12-19T20:22:55.895Z,57.20
2022-12-19T20:25:23.908Z,57.10
2022-12-19T20:27:53.763Z,57.20
2022-12-19T20:30:21.886Z,57.20
2022-12-19T20:32:49.896Z,57.20
2022-12-19T20:35:17.944Z,57.10
2022-12-19T20:37:46.309Z,57.10
2022-12-19T20:40:14.266Z,57.10
2022-12-19T20:42:42.656Z,57.10
2022-12-19T20:45:12.193Z,57.10
2022-12-19T20:47:40.505Z,57.10
2022-12-19T20:50:09.408Z,57.10
2022-12-19T20:52:37.767Z,57.00
2022-12-19T20:55:06.132Z,57.00
2022-12-19T20:57:33.922Z,57.10
2022-12-19T21:00:02.167Z,57.10
2022-12-19T21:02:52.636Z,57.10
2022-12-19T21:05:20.938Z,57.00
2022-12-19T21:07:49.075Z,57.10
2022-12-19T21:10:17.045Z,57.60
2022-12-19T21:12:47.947Z,56.90
2022-12-19T21:15:16.367Z,56.90
2022-12-19T21:17:45.572Z,57.00
2022-12-19T21:20:14.024Z,57.00
2022-12-19T21:22:41.926Z,57.00
2022-12-19T21:25:10.525Z,56.90
2022-12-19T21:27:38.516Z,57.00
2022-12-19T21:30:07.655Z,56.90
2022-12-19T21:32:35.954Z,56.90
2022-12-19T21:35:06.257Z,56.90
2022-12-19T21:37:39.815Z,56.90
2022-12-19T21:40:12.353Z,56.80
2022-12-19T21:42:40.340Z,56.90
2022-12-19T21:45:09.539Z,56.90
2022-12-19T21:47:39.445Z,56.90
2022-12-19T21:50:10.360Z,56.90
2022-12-19T21:52:38.391Z,56.90
2022-12-19T21:55:07.063Z,57.00
2022-12-19T21:57:38.821Z,57.50
2022-12-19T22:00:09.588Z,57.00
2022-12-19T22:02:37.718Z,57.00
2022-12-19T22:05:06.531Z,57.00
2022-12-19T22:07:36.354Z,57.00
2022-12-19T22:10:04.391Z,57.00
2022-12-19T22:12:32.772Z,57.60
2022-12-19T22:15:00.869Z,56.90
2022-12-19T22:17:29.195Z,56.90
2022-12-19T22:19:56.906Z,56.80
2022-12-19T22:22:25.038Z,57.00
2022-12-19T22:24:54.051Z,57.00
2022-12-19T22:27:22.307Z,57.00
2022-12-19T22:29:50.187Z,57.00
2022-12-19T22:32:18.065Z,56.90
2022-12-19T22:34:48.854Z,56.90
2022-12-19T22:37:16.864Z,56.90
2022-12-19T22:39:44.783Z,56.90
2022-12-19T22:42:14.064Z,56.90
2022-12-19T22:44:42.338Z,57.00
2022-12-19T22:47:10.179Z,56.90
2022-12-19T22:49:38.056Z,56.90
2022-12-19T22:52:05.992Z,57.00
2022-12-19T22:54:34.175Z,57.00
2022-12-19T22:57:01.858Z,56.90
2022-12-19T22:59:30.910Z,57.00
2022-12-19T23:01:58.724Z,56.90
2022-12-19T23:04:27.062Z,56.90
2022-12-19T23:06:54.776Z,57.00
2022-12-19T23:09:22.958Z,57.00
2022-12-19T23:11:50.644Z,56.90
2022-12-19T23:14:19.384Z,56.90
2022-12-19T23:16:48.599Z,57.00
2022-12-19T23:19:17.453Z,56.90
2022-12-19T23:21:45.349Z,57.00
2022-12-19T23:24:13.500Z,57.00
2022-12-19T23:26:41.447Z,57.00
2022-12-19T23:29:10.507Z,57.00
2022-12-19T23:31:40.111Z,57.00
2022-12-19T23:34:10.563Z,57.00
2022-12-19T23:37:09.600Z,57.00
2022-12-19T23:39:26.848Z,57.00
2022-12-19T23:41:54.914Z,56.90
2022-12-19T23:44:23.111Z,56.90
2022-12-19T23:46:51.730Z,57.00
2022-12-19T23:49:20.921Z,56.90
2022-12-19T23:51:48.691Z,57.00
2022-12-19T23:54:17.008Z,57.00
2022-12-19T23:56:44.802Z,57.00
2022-12-19T23:59:12.741Z,57.00
